createdAt,value
2023-12-19T00:02:22.349Z,35.25
2023-12-19T00:05:24.050Z,34.45
2023-12-19T00:08:25.641Z,34.97
2023-12-19T00:11:27.300Z,34.92
2023-12-19T00:14:28.862Z,36.17
2023-12-19T00:17:30.902Z,29.33
2023-12-19T00:20:32.687Z,31.08
2023-12-19T00:23:34.403Z,38.15
2023-12-19T00:26:35.959Z,35.47
2023-12-19T00:29:37.576Z,36.45
2023-12-19T00:32:39.522Z,34.65
2023-12-19T00:35:41.103Z,30.73
2023-12-19T00:38:42.778Z,30.23
2023-12-19T00:41:44.713Z,35.72
2023-12-19T00:44:46.338Z,39.70
2023-12-19T00:47:48.116Z,34.72
2023-12-19T00:50:50.230Z,30.95
2023-12-19T00:53:52.034Z,35.38
2023-12-19T00:56:53.821Z,31.90
2023-12-19T00:59:55.916Z,37.47
2023-12-19T01:02:57.561Z,32.47
2023-12-19T01:06:01.409Z,34.38
2023-12-19T01:09:03.452Z,35.97
2023-12-19T01:12:05.308Z,35.92
2023-12-19T01:15:07.649Z,33.45
2023-12-19T01:18:10.135Z,35.83
2023-12-19T01:21:11.784Z,30.38
2023-12-19T01:24:14.081Z,30.75
2023-12-19T01:27:15.683Z,30.02
2023-12-19T01:30:17.337Z,29.55
2023-12-19T01:33:19.163Z,30.90
2023-12-19T01:36:21.421Z,27.02
2023-12-19T01:39:23.076Z,27.50
2023-12-19T01:42:25.257Z,23.50
2023-12-19T01:45:28.985Z,28.65
2023-12-19T01:48:31.176Z,28.50
2023-12-19T01:51:33.763Z,26.80
2023-12-19T01:54:38.752Z,27.83
2023-12-19T01:57:40.483Z,23.88
2023-12-19T02:00:42.294Z,29.73
2023-12-19T02:03:46.251Z,28.13
2023-12-19T02:06:48.298Z,29.00
2023-12-19T02:09:49.946Z,30.33
2023-12-19T02:12:51.603Z,27.52
2023-12-19T02:15:53.506Z,30.35
2023-12-19T02:19:06.041Z,30.95
2023-12-19T02:22:07.830Z,30.83
2023-12-19T02:25:09.727Z,30.58
2023-12-19T02:28:11.903Z,31.02
2023-12-19T02:31:13.751Z,31.73
2023-12-19T02:34:15.530Z,28.92
2023-12-19T02:37:17.239Z,31.35
2023-12-19T02:40:19.082Z,33.10
2023-12-19T02:43:20.691Z,32.42
2023-12-19T02:46:23.359Z,29.33
2023-12-19T02:49:25.173Z,30.13
2023-12-19T02:52:26.845Z,33.20
2023-12-19T02:55:29.441Z,31.55
2023-12-19T02:58:32.929Z,43.05
2023-12-19T03:01:34.881Z,40.30
2023-12-19T03:04:36.656Z,38.83
2023-12-19T03:07:38.488Z,40.63
2023-12-19T03:10:40.144Z,42.50
2023-12-19T03:13:42.012Z,41.85
2023-12-19T03:16:43.607Z,48.92
2023-12-19T03:19:46.389Z,48.08
2023-12-19T03:22:48.084Z,47.70
2023-12-19T03:25:49.686Z,48.47
2023-12-19T03:28:52.534Z,50.10
2023-12-19T03:31:55.340Z,51.28
2023-12-19T03:34:56.979Z,53.65
2023-12-19T03:37:59.294Z,51.05
2023-12-19T03:41:01.398Z,45.83
2023-12-19T03:44:03.150Z,45.28
2023-12-19T03:47:04.874Z,47.42
2023-12-19T03:50:07.779Z,46.78
2023-12-19T03:53:09.358Z,50.78
2023-12-19T03:56:11.259Z,47.60
2023-12-19T03:59:13.223Z,42.67
2023-12-19T04:02:14.862Z,48.03
2023-12-19T04:05:16.440Z,41.97
2023-12-19T04:08:18.064Z,36.40
2023-12-19T04:11:21.086Z,40.80
2023-12-19T04:14:24.662Z,36.45
2023-12-19T04:17:26.400Z,35.70
2023-12-19T04:20:27.990Z,32.25
2023-12-19T04:23:29.700Z,34.05
2023-12-19T04:26:31.428Z,29.50
2023-12-19T04:29:33.045Z,30.23
2023-12-19T04:32:34.815Z,30.73
2023-12-19T04:35:36.519Z,32.33
2023-12-19T04:38:39.376Z,33.40
2023-12-19T04:41:41.063Z,28.80
2023-12-19T04:44:42.724Z,29.05
2023-12-19T04:47:44.419Z,25.88
2023-12-19T04:50:46.056Z,30.13
2023-12-19T04:53:48.889Z,26.13
2023-12-19T04:56:51.644Z,25.63
2023-12-19T04:59:53.351Z,27.58
2023-12-19T05:02:57.307Z,32.38
2023-12-19T05:05:59.676Z,24.25
2023-12-19T05:09:01.459Z,25.17
2023-12-19T05:12:03.634Z,24.33
2023-12-19T05:15:05.997Z,22.52
2023-12-19T05:18:07.689Z,28.00
2023-12-19T05:21:10.669Z,24.75
2023-12-19T05:24:12.325Z,24.80
2023-12-19T05:27:14.035Z,25.08
2023-12-19T05:30:16.519Z,22.63
2023-12-19T05:33:18.105Z,22.17
2023-12-19T05:36:19.810Z,24.50
2023-12-19T05:39:21.449Z,24.02
2023-12-19T05:42:23.949Z,23.73
2023-12-19T05:45:25.991Z,24.08
2023-12-19T05:48:27.878Z,25.80
2023-12-19T05:51:30.197Z,27.40
2023-12-19T05:54:31.874Z,29.30
2023-12-19T05:57:33.477Z,33.22
2023-12-19T06:00:35.770Z,27.58
2023-12-19T06:03:38.074Z,31.13
2023-12-19T06:06:45.073Z,32.35
2023-12-19T06:09:46.820Z,35.53
2023-12-19T06:12:48.664Z,31.27
2023-12-19T06:15:50.325Z,35.10
2023-12-19T06:18:52.003Z,31.10
2023-12-19T06:21:53.650Z,29.55
2023-12-19T06:24:55.371Z,32.00
2023-12-19T06:27:57.636Z,30.42
2023-12-19T06:30:59.297Z,33.08
2023-12-19T06:34:01.073Z,32.58
2023-12-19T06:37:03.789Z,31.88
2023-12-19T06:40:05.886Z,37.25
2023-12-19T06:43:11.517Z,32.17
2023-12-19T06:46:17.009Z,33.70
2023-12-19T06:49:18.830Z,31.73
2023-12-19T06:52:21.018Z,32.08
2023-12-19T06:55:22.634Z,31.70
2023-12-19T06:58:24.268Z,35.30
2023-12-19T07:01:27.085Z,31.52
2023-12-19T07:04:29.054Z,31.30
2023-12-19T07:07:30.647Z,31.13
2023-12-19T07:10:32.571Z,30.85
2023-12-19T07:13:34.163Z,32.95
2023-12-19T07:16:36.195Z,31.70
2023-12-19T07:19:38.083Z,35.38
2023-12-19T07:22:41.592Z,32.53
2023-12-19T07:25:43.367Z,29.95
2023-12-19T07:28:44.956Z,31.98
2023-12-19T07:31:46.575Z,32.25
2023-12-19T07:34:48.359Z,35.45
2023-12-19T07:37:49.953Z,32.88
2023-12-19T07:40:51.528Z,29.73
2023-12-19T07:43:53.417Z,30.67
2023-12-19T07:46:55.017Z,31.50
2023-12-19T07:49:56.685Z,30.73
2023-12-19T07:52:58.283Z,34.25
2023-12-19T07:56:01.896Z,31.40
2023-12-19T07:59:03.543Z,30.55
2023-12-19T08:02:05.142Z,29.23
2023-12-19T08:05:11.040Z,29.27
2023-12-19T08:08:12.683Z,28.83
2023-12-19T08:11:15.300Z,31.25
2023-12-19T08:14:16.907Z,31.02
2023-12-19T08:17:19.877Z,31.45
2023-12-19T08:20:21.654Z,25.98
2023-12-19T08:23:23.776Z,30.25
2023-12-19T08:26:25.654Z,28.20
2023-12-19T08:29:27.284Z,25.63
2023-12-19T08:32:28.846Z,26.80
2023-12-19T08:35:30.836Z,32.65
2023-12-19T08:38:32.607Z,30.02
2023-12-19T08:41:34.500Z,26.38
2023-12-19T08:44:36.063Z,25.33
2023-12-19T08:47:37.616Z,26.52
2023-12-19T08:50:39.238Z,23.88
2023-12-19T08:53:40.826Z,23.67
2023-12-19T08:56:43.287Z,27.88
2023-12-19T08:59:44.993Z,26.88
2023-12-19T09:02:48.052Z,24.55
2023-12-19T09:05:51.204Z,23.33
2023-12-19T09:08:52.845Z,23.88
2023-12-19T09:11:55.740Z,26.23
2023-12-19T09:14:57.738Z,23.33
2023-12-19T09:17:59.622Z,23.92
2023-12-19T09:21:01.850Z,22.63
2023-12-19T09:24:03.610Z,23.58
2023-12-19T09:27:05.521Z,24.15
2023-12-19T09:30:07.823Z,23.10
2023-12-19T09:33:09.490Z,20.90
2023-12-19T09:36:19.840Z,22.95
2023-12-19T09:39:22.565Z,20.35
2023-12-19T09:42:24.388Z,21.00
2023-12-19T09:45:26.340Z,18.20
2023-12-19T09:48:39.835Z,19.85
2023-12-19T09:51:44.154Z,16.77
2023-12-19T09:54:45.868Z,20.05
2023-12-19T09:57:47.977Z,21.63
2023-12-19T10:00:49.786Z,17.50
2023-12-19T10:03:56.561Z,22.20
2023-12-19T10:06:59.803Z,20.77
2023-12-19T10:10:01.805Z,23.52
2023-12-19T10:13:08.806Z,15.25
2023-12-19T10:16:30.722Z,20.70
2023-12-19T10:19:39.578Z,18.70
2023-12-19T10:22:41.430Z,18.65
2023-12-19T10:25:46.518Z,18.42
2023-12-19T10:28:56.710Z,19.42
2023-12-19T10:32:17.964Z,17.48
2023-12-19T10:35:19.675Z,16.98
2023-12-19T10:38:21.313Z,16.27
2023-12-19T10:41:30.795Z,17.58
2023-12-19T10:44:33.893Z,17.10
2023-12-19T10:47:35.660Z,21.38
2023-12-19T10:50:37.448Z,17.42
2023-12-19T10:53:42.102Z,14.77
2023-12-19T10:56:49.380Z,17.55
2023-12-19T10:59:57.264Z,17.65
2023-12-19T11:03:30.809Z,20.55
2023-12-19T11:06:36.676Z,25.08
2023-12-19T11:09:40.883Z,16.45
2023-12-19T11:12:43.833Z,16.65
2023-12-19T11:15:52.001Z,18.30
2023-12-19T11:19:19.518Z,15.75
2023-12-19T11:22:41.546Z,15.48
2023-12-19T11:25:55.227Z,22.25
2023-12-19T11:28:56.845Z,15.30
2023-12-19T11:31:58.417Z,12.43
2023-12-19T11:35:14.022Z,12.00
2023-12-19T11:38:25.988Z,20.05
2023-12-19T11:41:39.637Z,19.27
2023-12-19T11:44:41.219Z,17.10
2023-12-19T11:47:43.283Z,11.82
2023-12-19T11:50:45.202Z,16.27
2023-12-19T11:53:46.816Z,15.68
2023-12-19T11:56:59.999Z,16.10
2023-12-19T12:00:03.398Z,14.85
2023-12-19T12:03:12.002Z,15.00
2023-12-19T12:06:13.937Z,12.00
2023-12-19T12:09:19.058Z,13.73
2023-12-19T12:12:32.443Z,15.98
2023-12-19T12:15:34.064Z,14.20
2023-12-19T12:18:36.059Z,15.68
2023-12-19T12:21:47.868Z,12.18
2023-12-19T12:24:54.343Z,11.88
2023-12-19T12:28:09.632Z,12.00
2023-12-19T12:31:11.417Z,17.00
2023-12-19T12:34:13.826Z,14.65
2023-12-19T12:37:19.380Z,10.40
2023-12-19T12:40:21.042Z,11.57
2023-12-19T12:43:52.894Z,11.55
2023-12-19T12:46:54.597Z,11.80
2023-12-19T12:50:07.807Z,12.73
2023-12-19T12:53:15.700Z,15.07
2023-12-19T12:56:19.708Z,13.60
2023-12-19T12:59:23.661Z,12.52
2023-12-19T13:02:25.328Z,12.50
2023-12-19T13:05:27.023Z,11.15
2023-12-19T13:08:29.950Z,16.75
2023-12-19T13:11:31.532Z,14.05
2023-12-19T13:14:33.132Z,14.48
2023-12-19T13:17:34.790Z,12.32
2023-12-19T13:20:38.670Z,13.35
2023-12-19T13:23:42.408Z,16.58
2023-12-19T13:26:43.973Z,16.00
2023-12-19T13:29:45.632Z,23.65
2023-12-19T13:32:47.270Z,15.30
2023-12-19T13:35:49.166Z,19.20
2023-12-19T13:38:50.830Z,14.90
2023-12-19T13:41:54.225Z,17.60
2023-12-19T13:44:55.896Z,16.50
2023-12-19T13:47:59.737Z,18.80
2023-12-19T13:51:02.359Z,21.52
2023-12-19T13:54:04.187Z,18.88
2023-12-19T13:57:05.826Z,17.30
2023-12-19T14:00:10.181Z,19.63
2023-12-19T14:03:11.857Z,15.25
2023-12-19T14:06:13.898Z,15.63
2023-12-19T14:09:20.218Z,17.40
2023-12-19T14:12:22.112Z,16.70
2023-12-19T14:15:23.942Z,21.52
2023-12-19T14:18:25.659Z,18.50
2023-12-19T14:21:27.265Z,18.33
2023-12-19T14:24:29.295Z,17.85
2023-12-19T14:27:30.968Z,17.20
2023-12-19T14:30:32.661Z,13.48
2023-12-19T14:33:34.345Z,15.65
2023-12-19T14:36:35.971Z,15.18
2023-12-19T14:39:41.489Z,15.25
2023-12-19T14:42:43.246Z,16.42
2023-12-19T14:45:45.572Z,14.10
2023-12-19T14:48:48.247Z,12.35
2023-12-19T14:51:49.988Z,14.75
2023-12-19T14:54:51.743Z,14.43
2023-12-19T14:57:53.721Z,15.82
2023-12-19T15:00:55.394Z,14.40
2023-12-19T15:03:57.067Z,13.63
2023-12-19T15:06:58.967Z,15.93
2023-12-19T15:10:00.692Z,15.57
2023-12-19T15:13:03.520Z,16.40
2023-12-19T15:16:05.537Z,16.83
2023-12-19T15:19:08.916Z,15.02
2023-12-19T15:22:10.688Z,13.07
2023-12-19T15:25:12.536Z,18.05
2023-12-19T15:28:17.512Z,14.23
2023-12-19T15:31:22.183Z,15.82
2023-12-19T15:34:23.967Z,12.70
2023-12-19T15:37:26.201Z,14.70
2023-12-19T15:40:27.792Z,15.63
2023-12-19T15:43:37.835Z,15.73
2023-12-19T15:46:43.326Z,11.77
2023-12-19T15:49:45.298Z,13.45
2023-12-19T15:52:47.101Z,14.50
2023-12-19T15:55:48.730Z,12.68
2023-12-19T15:58:50.377Z,11.38
2023-12-19T16:01:54.001Z,14.05
2023-12-19T16:04:56.810Z,13.15
2023-12-19T16:07:58.453Z,16.45
2023-12-19T16:11:00.102Z,15.90
2023-12-19T16:14:03.994Z,18.83
2023-12-19T16:17:05.659Z,22.08
2023-12-19T16:20:08.206Z,17.63
2023-12-19T16:23:09.794Z,13.48
2023-12-19T16:26:12.359Z,16.23
2023-12-19T16:29:16.403Z,12.43
2023-12-19T16:32:18.298Z,12.07
2023-12-19T16:35:20.013Z,13.80
2023-12-19T16:38:23.129Z,14.57
2023-12-19T16:41:28.817Z,13.38
2023-12-19T16:44:30.607Z,16.08
2023-12-19T16:47:32.210Z,17.25
2023-12-19T16:50:35.833Z,16.23
2023-12-19T16:53:38.787Z,17.65
2023-12-19T16:56:40.960Z,18.95
2023-12-19T16:59:42.670Z,15.60
2023-12-19T17:02:44.469Z,13.25
2023-12-19T17:05:47.107Z,14.02
2023-12-19T17:08:49.718Z,12.35
2023-12-19T17:11:51.287Z,12.93
2023-12-19T17:14:52.862Z,12.82
2023-12-19T17:17:56.341Z,12.93
2023-12-19T17:20:58.006Z,10.98
2023-12-19T17:23:59.655Z,13.40
2023-12-19T17:27:01.222Z,12.70
2023-12-19T17:30:04.905Z,15.35
2023-12-19T17:33:06.627Z,14.15
2023-12-19T17:36:12.009Z,14.25
2023-12-19T17:39:14.500Z,16.17
2023-12-19T17:42:16.097Z,13.50
2023-12-19T17:45:17.752Z,15.45
2023-12-19T17:48:19.412Z,14.60
2023-12-19T17:51:24.457Z,15.45
2023-12-19T17:54:26.033Z,13.93
2023-12-19T17:57:27.656Z,15.90
2023-12-19T18:00:29.614Z,17.88
2023-12-19T18:03:31.463Z,19.83
2023-12-19T18:06:33.340Z,16.05
2023-12-19T18:09:35.045Z,20.85
2023-12-19T18:12:36.734Z,16.88
2023-12-19T18:15:38.380Z,19.42
2023-12-19T18:18:40.594Z,20.40
2023-12-19T18:21:43.359Z,18.05
2023-12-19T18:24:44.944Z,16.67
2023-12-19T18:27:46.585Z,13.80
2023-12-19T18:30:48.238Z,16.73
2023-12-19T18:33:49.886Z,16.80
2023-12-19T18:36:53.122Z,18.52
2023-12-19T18:39:55.286Z,15.68
2023-12-19T18:42:57.027Z,15.68
2023-12-19T18:45:59.592Z,18.08
2023-12-19T18:49:01.930Z,19.23
2023-12-19T18:52:04.133Z,16.38
2023-12-19T18:55:07.354Z,17.52
2023-12-19T18:58:09.138Z,17.15
2023-12-19T19:01:12.639Z,14.32
2023-12-19T19:04:14.601Z,13.20
2023-12-19T19:07:16.267Z,15.95
2023-12-19T19:10:18.876Z,12.60
2023-12-19T19:13:21.010Z,14.65
2023-12-19T19:16:22.691Z,16.85
2023-12-19T19:19:26.820Z,14.63
2023-12-19T19:22:31.381Z,16.73
2023-12-19T19:25:34.476Z,15.98
2023-12-19T19:28:36.289Z,15.70
2023-12-19T19:31:38.090Z,15.77
2023-12-19T19:34:42.951Z,15.48
2023-12-19T19:37:44.801Z,17.92
2023-12-19T19:40:48.659Z,19.98
2023-12-19T19:43:53.190Z,19.17
2023-12-19T19:46:54.881Z,16.58
2023-12-19T19:49:57.770Z,17.85
2023-12-19T19:52:59.573Z,21.60
2023-12-19T19:56:01.157Z,18.25
2023-12-19T19:59:05.052Z,17.95
2023-12-19T20:02:07.476Z,18.80
2023-12-19T20:05:09.551Z,22.70
2023-12-19T20:08:11.703Z,21.00
2023-12-19T20:11:13.670Z,19.27
2023-12-19T20:14:15.469Z,23.40
2023-12-19T20:17:17.248Z,22.40
2023-12-19T20:20:19.838Z,29.15
2023-12-19T20:23:27.681Z,21.25
2023-12-19T20:26:29.296Z,25.92
2023-12-19T20:29:31.005Z,22.60
2023-12-19T20:32:32.588Z,25.55
2023-12-19T20:35:34.502Z,21.73
2023-12-19T20:38:36.297Z,26.13
2023-12-19T20:41:38.222Z,26.17
2023-12-19T20:44:40.012Z,30.80
2023-12-19T20:47:42.677Z,26.90
2023-12-19T20:50:44.754Z,27.45
2023-12-19T20:53:46.493Z,35.50
2023-12-19T20:56:48.502Z,23.92
2023-12-19T20:59:54.394Z,34.25
2023-12-19T21:02:56.229Z,26.40
2023-12-19T21:06:00.691Z,31.63
2023-12-19T21:09:02.720Z,32.78
2023-12-19T21:12:04.713Z,29.58
2023-12-19T21:15:07.813Z,29.77
2023-12-19T21:18:09.420Z,30.80
2023-12-19T21:21:11.543Z,32.85
2023-12-19T21:24:13.247Z,30.25
2023-12-19T21:27:14.939Z,28.95
2023-12-19T21:30:16.815Z,29.77
2023-12-19T21:33:18.941Z,33.33
2023-12-19T21:36:20.841Z,33.33
2023-12-19T21:39:22.575Z,31.92
2023-12-19T21:42:27.285Z,37.58
2023-12-19T21:45:30.838Z,34.60
2023-12-19T21:48:32.510Z,36.72
2023-12-19T21:51:38.082Z,40.72
2023-12-19T21:54:41.045Z,36.33
2023-12-19T21:57:43.005Z,34.50
2023-12-19T22:00:45.037Z,33.60
2023-12-19T22:03:46.779Z,37.58
2023-12-19T22:06:48.470Z,45.53
2023-12-19T22:09:57.553Z,39.92
2023-12-19T22:13:03.817Z,34.10
2023-12-19T22:16:07.138Z,39.60
2023-12-19T22:19:09.168Z,42.28
2023-12-19T22:22:13.363Z,48.78
2023-12-19T22:25:15.504Z,45.22
2023-12-19T22:28:17.322Z,47.08
2023-12-19T22:31:19.053Z,47.72
2023-12-19T22:34:20.868Z,44.17
2023-12-19T22:37:22.635Z,57.85
2023-12-19T22:40:24.717Z,43.00
2023-12-19T22:43:26.580Z,42.60
2023-12-19T22:46:29.659Z,39.90
2023-12-19T22:49:32.752Z,47.80
2023-12-19T22:52:34.725Z,43.83
2023-12-19T22:55:47.483Z,49.63
2023-12-19T22:58:49.158Z,51.70
2023-12-19T23:01:54.243Z,51.22
2023-12-19T23:04:57.029Z,50.17
2023-12-19T23:07:58.712Z,56.80
2023-12-19T23:11:00.276Z,54.80
2023-12-19T23:14:02.338Z,46.40
2023-12-19T23:17:04.727Z,47.38
2023-12-19T23:20:06.910Z,36.60
2023-12-19T23:23:08.661Z,42.40
2023-12-19T23:26:10.327Z,34.22
2023-12-19T23:29:12.002Z,31.17
2023-12-19T23:32:14.202Z,42.08
2023-12-19T23:35:15.959Z,41.10
2023-12-19T23:38:17.643Z,40.00
2023-12-19T23:41:19.589Z,45.50
2023-12-19T23:44:21.148Z,44.38
2023-12-19T23:47:22.757Z,47.75
2023-12-19T23:50:24.361Z,50.15
2023-12-19T23:53:25.976Z,54.47
2023-12-19T23:56:27.721Z,46.78
2023-12-19T23:59:30.372Z,46.63
